Terminal Aerodrome Forecast
Issued by NWS

Current Version | Previous Version | Graphics & Text | Print | Product List | Glossary On
Versions: 1 2 3 4 5 6 7 8 9 10 11 12 13 14 15
000
FTUS41 KILN 230533
TAFLUK
TAF
KLUK 230533Z 2306/2406 00000KT P6SM SKC
     FM230800 00000KT 3SM BR SCT002
      TEMPO 2308/2312 1/2SM FG BKN002
     FM231300 00000KT P6SM SKC
     FM231600 16006KT P6SM FEW040 SCT250
     FM240000 00000KT P6SM BKN250=

USA.gov is the U.S. government's official web portal to all federal, state and local government web resources and services.